createdAt,value
2018-08-28T00:00:24.899Z,83.40
2018-08-28T00:02:02.549Z,84.62
2018-08-28T00:03:38.895Z,83.56
2018-08-28T00:05:15.500Z,84.01
2018-08-28T00:06:50.681Z,83.59
2018-08-28T00:08:25.744Z,83.16
2018-08-28T00:10:01.590Z,83.61
2018-08-28T00:11:37.215Z,84.28
2018-08-28T00:13:13.478Z,83.25
2018-08-28T00:14:48.458Z,83.18
2018-08-28T00:16:23.761Z,83.68
2018-08-28T00:17:58.899Z,82.87
2018-08-28T00:19:34.065Z,82.36
2018-08-28T00:21:09.270Z,83.57
2018-08-28T00:22:44.832Z,82.72
2018-08-28T00:24:20.384Z,82.53
2018-08-28T00:25:55.655Z,82.13
2018-08-28T00:27:31.035Z,82.62
2018-08-28T00:29:06.553Z,81.99
2018-08-28T00:30:41.794Z,82.08
2018-08-28T00:32:18.276Z,82.13
2018-08-28T00:33:54.214Z,82.58
2018-08-28T00:35:30.872Z,81.83
2018-08-28T00:37:06.611Z,82.60
2018-08-28T00:38:41.736Z,82.80
2018-08-28T00:40:22.997Z,82.58
2018-08-28T00:42:01.136Z,82.31
2018-08-28T00:43:36.401Z,82.47
2018-08-28T00:45:14.366Z,81.92
2018-08-28T00:46:50.132Z,82.94
2018-08-28T00:48:28.024Z,82.12
2018-08-28T00:50:03.148Z,83.10
2018-08-28T00:51:39.641Z,82.72
2018-08-28T00:53:15.259Z,83.45
2018-08-28T00:54:50.845Z,82.78
2018-08-28T00:56:29.677Z,82.85
2018-08-28T00:58:04.721Z,83.27
2018-08-28T00:59:40.126Z,83.78
2018-08-28T01:01:15.289Z,83.92
2018-08-28T01:02:50.310Z,84.39
2018-08-28T01:04:26.304Z,84.52
2018-08-28T01:06:01.442Z,84.42
2018-08-28T01:07:36.740Z,84.25
2018-08-28T01:09:11.781Z,84.94
2018-08-28T01:10:46.657Z,84.36
2018-08-28T01:12:22.535Z,84.85
2018-08-28T01:13:57.625Z,85.52
2018-08-28T01:15:33.577Z,85.60
2018-08-28T01:17:13.968Z,85.87
2018-08-28T01:18:49.821Z,85.63
2018-08-28T01:20:24.791Z,85.91
2018-08-28T01:22:01.853Z,84.98
2018-08-28T01:23:37.841Z,85.36
2018-08-28T01:25:12.989Z,86.18
2018-08-28T01:26:48.436Z,86.30
2018-08-28T01:28:23.754Z,85.24
2018-08-28T01:29:58.657Z,85.61
2018-08-28T01:31:34.655Z,86.38
2018-08-28T01:33:09.780Z,86.00
2018-08-28T01:34:45.274Z,86.60
2018-08-28T01:36:20.373Z,86.36
2018-08-28T01:37:55.894Z,86.43
2018-08-28T01:39:31.166Z,86.59
2018-08-28T01:41:06.543Z,86.78
2018-08-28T01:42:42.185Z,86.54
2018-08-28T01:44:17.320Z,86.21
2018-08-28T01:45:52.819Z,87.25
2018-08-28T01:47:28.606Z,87.16
2018-08-28T01:49:03.825Z,86.72
2018-08-28T01:50:39.154Z,87.85
2018-08-28T01:52:14.175Z,87.27
2018-08-28T01:53:50.033Z,87.12
2018-08-28T01:55:24.939Z,87.49
2018-08-28T01:57:00.457Z,88.09
2018-08-28T01:58:35.620Z,88.05
2018-08-28T02:00:11.073Z,88.04
2018-08-28T02:01:46.104Z,88.12
2018-08-28T02:03:21.400Z,88.24
2018-08-28T02:04:56.769Z,88.69
2018-08-28T02:06:31.825Z,88.39
2018-08-28T02:08:07.288Z,88.55
2018-08-28T02:09:42.357Z,88.66
2018-08-28T02:11:17.911Z,88.43
2018-08-28T02:12:53.335Z,88.73
2018-08-28T02:14:28.793Z,89.13
2018-08-28T02:16:04.449Z,89.21
2018-08-28T02:17:40.521Z,89.14
2018-08-28T02:19:15.796Z,89.11
2018-08-28T02:20:51.136Z,89.65
2018-08-28T02:22:32.033Z,89.56
2018-08-28T02:24:07.225Z,89.46
2018-08-28T02:25:42.423Z,89.52
2018-08-28T02:27:18.179Z,89.25
2018-08-28T02:28:53.410Z,90.01
2018-08-28T02:30:28.637Z,90.02
2018-08-28T02:32:04.422Z,89.71
2018-08-28T02:33:39.324Z,90.04
2018-08-28T02:35:15.465Z,90.03
2018-08-28T02:36:51.855Z,90.11
2018-08-28T02:38:26.833Z,90.13
2018-08-28T02:40:02.021Z,90.24
2018-08-28T02:41:36.914Z,90.37
2018-08-28T02:43:12.390Z,90.05
2018-08-28T02:44:47.360Z,90.28
2018-08-28T02:46:23.242Z,90.45
2018-08-28T02:47:58.428Z,90.52
2018-08-28T02:49:33.565Z,90.71
2018-08-28T02:51:08.908Z,90.94
2018-08-28T02:52:44.231Z,90.96
2018-08-28T02:54:20.282Z,91.06
2018-08-28T02:55:55.320Z,91.10
2018-08-28T02:57:30.523Z,90.85
2018-08-28T02:59:07.586Z,91.33
2018-08-28T03:00:42.590Z,91.15
2018-08-28T03:02:17.627Z,91.29
2018-08-28T03:03:53.371Z,91.61
2018-08-28T03:05:30.471Z,91.12
2018-08-28T03:07:05.505Z,91.48
2018-08-28T03:08:41.700Z,91.41
2018-08-28T03:10:17.088Z,91.66
2018-08-28T03:11:52.416Z,91.67
2018-08-28T03:13:27.782Z,91.51
2018-08-28T03:15:05.932Z,91.63
2018-08-28T03:16:41.259Z,91.51
2018-08-28T03:18:16.202Z,91.92
2018-08-28T03:19:51.066Z,91.65
2018-08-28T03:21:26.499Z,91.92
2018-08-28T03:23:01.804Z,91.64
2018-08-28T03:24:37.085Z,91.98
2018-08-28T03:26:12.841Z,92.30
2018-08-28T03:27:50.690Z,92.25
2018-08-28T03:29:25.926Z,92.01
2018-08-28T03:31:01.385Z,92.08
2018-08-28T03:32:36.658Z,92.29
2018-08-28T03:34:12.024Z,92.21
2018-08-28T03:35:48.065Z,92.39
2018-08-28T03:37:23.094Z,92.43
2018-08-28T03:38:58.684Z,92.30
2018-08-28T03:40:35.402Z,92.52
2018-08-28T03:42:10.358Z,92.59
2018-08-28T03:43:45.702Z,92.67
2018-08-28T03:45:20.717Z,92.62
2018-08-28T03:46:55.610Z,92.72
2018-08-28T03:48:31.046Z,92.46
2018-08-28T03:50:07.707Z,93.06
2018-08-28T03:51:43.303Z,92.92
2018-08-28T03:53:18.461Z,92.81
2018-08-28T03:54:53.973Z,92.91
2018-08-28T03:56:28.893Z,93.15
2018-08-28T03:58:04.353Z,92.78
2018-08-28T03:59:39.782Z,93.08
2018-08-28T04:01:15.107Z,92.77
2018-08-28T04:02:50.318Z,92.74
2018-08-28T04:04:25.348Z,93.35
2018-08-28T04:06:00.916Z,93.27
2018-08-28T04:07:36.942Z,93.42
2018-08-28T04:09:12.069Z,93.30
2018-08-28T04:10:48.344Z,93.21
2018-08-28T04:12:23.658Z,93.37
2018-08-28T04:13:59.123Z,93.49
2018-08-28T04:15:38.723Z,93.56
2018-08-28T04:17:18.791Z,93.29
2018-08-28T04:18:56.153Z,93.64
2018-08-28T04:20:37.214Z,93.49
2018-08-28T04:22:15.055Z,93.33
2018-08-28T04:23:51.998Z,93.43
2018-08-28T04:25:30.092Z,93.37
2018-08-28T04:27:06.614Z,93.56
2018-08-28T04:28:44.922Z,93.69
2018-08-28T04:30:20.159Z,93.45
2018-08-28T04:32:04.740Z,93.70
2018-08-28T04:33:40.578Z,93.60
2018-08-28T04:35:15.465Z,93.94
2018-08-28T04:36:50.671Z,93.78
2018-08-28T04:38:26.447Z,93.80
2018-08-28T04:40:02.246Z,93.75
2018-08-28T04:41:38.098Z,93.88
2018-08-28T04:43:13.592Z,93.64
2018-08-28T04:44:48.753Z,93.89
2018-08-28T04:46:24.591Z,93.88
2018-08-28T04:47:59.536Z,94.31
2018-08-28T04:49:36.008Z,94.05
2018-08-28T04:51:11.372Z,94.08
2018-08-28T04:52:46.244Z,94.20
2018-08-28T04:54:21.409Z,93.98
2018-08-28T04:55:56.241Z,93.72
2018-08-28T04:57:31.279Z,93.94
2018-08-28T04:59:06.520Z,93.98
2018-08-28T05:00:41.987Z,94.22
2018-08-28T05:02:17.051Z,94.33
2018-08-28T05:03:52.574Z,94.47
2018-08-28T05:05:27.488Z,94.32
2018-08-28T05:07:03.018Z,94.44
2018-08-28T05:08:38.221Z,93.82
2018-08-28T05:10:13.543Z,94.20
2018-08-28T05:11:49.516Z,94.21
2018-08-28T05:13:27.486Z,94.46
2018-08-28T05:15:04.377Z,94.21
2018-08-28T05:16:40.103Z,94.31
2018-08-28T05:18:19.045Z,93.97
2018-08-28T05:19:57.603Z,93.98
2018-08-28T05:21:33.581Z,94.49
2018-08-28T05:23:08.490Z,94.26
2018-08-28T05:24:44.336Z,94.13
2018-08-28T05:26:19.733Z,93.90
2018-08-28T05:27:55.300Z,94.20
2018-08-28T05:29:30.339Z,94.13
2018-08-28T05:31:05.444Z,94.25
2018-08-28T05:32:44.811Z,94.24
2018-08-28T05:34:19.752Z,94.34
2018-08-28T05:35:54.640Z,94.68
2018-08-28T05:37:29.576Z,93.87
2018-08-28T05:39:05.025Z,94.61
2018-08-28T05:40:40.898Z,94.11
2018-08-28T05:42:16.171Z,94.48
2018-08-28T05:43:51.258Z,94.58
2018-08-28T05:45:26.516Z,94.08
2018-08-28T05:47:01.642Z,93.80
2018-08-28T05:48:37.230Z,94.09
2018-08-28T05:50:12.436Z,94.32
2018-08-28T05:51:47.747Z,94.55
2018-08-28T05:53:22.694Z,93.89
2018-08-28T05:54:57.665Z,93.80
2018-08-28T05:56:33.526Z,93.50
2018-08-28T05:58:08.439Z,93.54
2018-08-28T05:59:43.433Z,94.46
2018-08-28T06:01:18.736Z,93.38
2018-08-28T06:02:54.052Z,94.04
2018-08-28T06:04:29.043Z,93.42
2018-08-28T06:06:04.512Z,94.07
2018-08-28T06:07:40.470Z,93.28
2018-08-28T06:09:16.071Z,93.24
2018-08-28T06:10:54.876Z,93.37
2018-08-28T06:12:30.093Z,93.50
2018-08-28T06:14:07.989Z,93.11
2018-08-28T06:15:44.016Z,93.07
2018-08-28T06:17:21.493Z,93.15
2018-08-28T06:18:58.310Z,92.71
2018-08-28T06:20:34.019Z,93.00
2018-08-28T06:22:10.368Z,92.50
2018-08-28T06:23:50.704Z,92.94
2018-08-28T06:25:27.469Z,92.72
2018-08-28T06:27:03.003Z,92.67
2018-08-28T06:28:39.604Z,93.15
2018-08-28T06:30:20.009Z,92.72
2018-08-28T06:31:55.228Z,92.15
2018-08-28T06:33:30.183Z,92.36
2018-08-28T06:35:06.161Z,91.82
2018-08-28T06:36:45.441Z,92.08
2018-08-28T06:38:20.686Z,91.56
2018-08-28T06:39:57.276Z,91.44
2018-08-28T06:41:33.218Z,90.92
2018-08-28T06:43:08.402Z,91.36
2018-08-28T06:44:43.398Z,89.95
2018-08-28T06:46:19.345Z,90.00
2018-08-28T06:47:54.553Z,89.86
2018-08-28T06:49:30.359Z,89.30
2018-08-28T06:51:07.911Z,88.62
2018-08-28T06:52:42.947Z,88.28
2018-08-28T06:54:19.464Z,87.65
2018-08-28T06:55:55.722Z,87.32
2018-08-28T06:57:31.008Z,86.42
2018-08-28T06:59:08.233Z,84.87
2018-08-28T07:00:44.411Z,84.98
2018-08-28T07:02:20.101Z,83.82
2018-08-28T07:03:55.312Z,83.49
2018-08-28T07:05:32.189Z,82.67
2018-08-28T07:07:08.717Z,81.42
2018-08-28T07:08:44.451Z,80.77
2018-08-28T07:10:21.656Z,79.81
2018-08-28T07:12:02.549Z,78.88
2018-08-28T07:13:37.614Z,77.79
2018-08-28T07:15:16.275Z,77.78
2018-08-28T07:16:54.055Z,76.77
2018-08-28T07:21:06.887Z,74.51
2018-08-28T07:22:42.163Z,74.36
2018-08-28T07:24:24.212Z,73.41
2018-08-28T07:25:59.442Z,72.75
2018-08-28T07:27:35.313Z,73.24
2018-08-28T07:29:11.685Z,72.44
2018-08-28T07:30:47.878Z,72.36
2018-08-28T07:32:24.384Z,71.50
2018-08-28T07:34:02.168Z,71.20
2018-08-28T07:35:38.491Z,70.74
2018-08-28T07:37:15.812Z,71.37
2018-08-28T07:38:52.045Z,70.39
2018-08-28T07:40:28.124Z,70.14
2018-08-28T07:42:05.785Z,69.76
2018-08-28T07:43:41.617Z,69.05
2018-08-28T07:45:21.665Z,69.05
2018-08-28T07:46:58.274Z,68.00
2018-08-28T07:48:34.480Z,68.37
2018-08-28T07:50:11.871Z,67.95
2018-08-28T07:51:48.085Z,67.45
2018-08-28T07:53:23.956Z,67.23
2018-08-28T07:55:00.057Z,66.24
2018-08-28T07:56:37.721Z,66.28
2018-08-28T07:58:14.059Z,65.33
2018-08-28T07:59:53.858Z,65.06
2018-08-28T08:01:29.579Z,65.09
2018-08-28T08:03:06.979Z,64.44
2018-08-28T08:04:46.880Z,63.38
2018-08-28T08:06:22.359Z,63.06
2018-08-28T08:07:59.297Z,62.27
2018-08-28T08:09:35.114Z,62.56
2018-08-28T08:11:13.311Z,63.08
2018-08-28T08:12:51.691Z,62.38
2018-08-28T08:14:29.702Z,61.92
2018-08-28T08:16:06.761Z,60.24
2018-08-28T08:17:42.111Z,59.92
2018-08-28T08:19:17.591Z,57.58
2018-08-28T08:20:53.995Z,56.13
2018-08-28T08:22:29.765Z,54.53
2018-08-28T08:24:07.715Z,55.85
2018-08-28T08:25:45.595Z,55.94
2018-08-28T08:27:22.547Z,56.63
2018-08-28T08:28:57.611Z,56.19
2018-08-28T08:30:33.725Z,55.31
2018-08-28T08:32:14.081Z,56.52
2018-08-28T08:33:51.035Z,55.22
2018-08-28T08:35:26.338Z,55.49
2018-08-28T08:37:02.246Z,55.08
2018-08-28T08:38:37.388Z,54.73
2018-08-28T08:40:14.521Z,54.93
2018-08-28T08:41:52.896Z,54.66
2018-08-28T08:43:29.959Z,54.14
2018-08-28T08:45:13.862Z,53.90
2018-08-28T08:46:49.476Z,53.58
2018-08-28T08:48:30.083Z,55.02
2018-08-28T08:50:05.431Z,52.84
2018-08-28T08:51:41.188Z,52.91
2018-08-28T08:53:17.766Z,52.78
2018-08-28T08:54:53.196Z,52.17
2018-08-28T08:56:31.767Z,51.32
2018-08-28T08:58:10.567Z,52.85
2018-08-28T08:59:51.996Z,52.54
2018-08-28T09:01:27.826Z,53.51
2018-08-28T09:03:07.269Z,53.79
2018-08-28T09:04:44.415Z,53.35
2018-08-28T09:06:21.462Z,55.61
2018-08-28T09:07:57.346Z,53.16
2018-08-28T09:09:35.724Z,54.78
2018-08-28T09:11:14.117Z,53.99
2018-08-28T09:13:07.272Z,53.30
2018-08-28T09:14:55.737Z,54.32
2018-08-28T09:16:44.831Z,54.18
2018-08-28T09:18:27.786Z,54.21
2018-08-28T09:20:05.152Z,54.40
2018-08-28T09:21:58.759Z,53.75
2018-08-28T09:23:43.250Z,55.02
2018-08-28T09:25:25.507Z,55.34
2018-08-28T09:27:07.806Z,53.51
2018-08-28T09:28:50.778Z,53.72
2018-08-28T09:30:45.978Z,50.32
2018-08-28T09:32:31.790Z,51.50
2018-08-28T09:34:16.667Z,53.42
2018-08-28T09:36:00.682Z,51.67
2018-08-28T09:37:48.320Z,49.05
2018-08-28T09:39:25.573Z,48.59
2018-08-28T09:41:08.698Z,49.58
2018-08-28T09:42:44.577Z,47.83
2018-08-28T09:44:23.539Z,47.47
2018-08-28T09:46:02.714Z,47.31
2018-08-28T09:47:41.248Z,48.34
2018-08-28T09:49:21.385Z,46.17
2018-08-28T09:50:58.788Z,45.29
2018-08-28T09:52:36.445Z,43.62
2018-08-28T09:54:11.741Z,43.35
2018-08-28T09:55:47.568Z,43.56
2018-08-28T09:57:22.715Z,44.80
2018-08-28T09:58:58.206Z,45.56
2018-08-28T10:00:38.810Z,44.38
2018-08-28T10:02:17.478Z,44.94
2018-08-28T10:03:54.726Z,45.05
2018-08-28T10:05:31.143Z,46.37
2018-08-28T10:07:09.060Z,45.87
2018-08-28T10:08:44.909Z,47.28
2018-08-28T10:10:21.092Z,47.17
2018-08-28T10:11:56.408Z,47.26
2018-08-28T10:13:32.252Z,47.99
2018-08-28T10:15:10.055Z,46.16
2018-08-28T10:16:46.751Z,46.07
2018-08-28T10:18:26.393Z,45.47
2018-08-28T10:20:02.710Z,45.04
2018-08-28T10:21:43.164Z,44.14
2018-08-28T10:23:22.268Z,44.58
2018-08-28T10:24:59.571Z,45.99
2018-08-28T10:26:36.434Z,45.19
2018-08-28T10:28:13.453Z,42.71
2018-08-28T10:29:51.912Z,42.77
2018-08-28T10:31:41.574Z,44.19
2018-08-28T10:33:19.519Z,43.78
2018-08-28T10:34:54.622Z,43.69
2018-08-28T10:36:31.739Z,43.05
2018-08-28T10:38:10.549Z,42.69
2018-08-28T10:39:45.834Z,42.70
2018-08-28T10:41:25.974Z,43.02
2018-08-28T10:43:01.672Z,40.75
2018-08-28T10:44:50.031Z,40.26
2018-08-28T10:46:35.028Z,42.49
2018-08-28T10:48:27.289Z,40.61
2018-08-28T10:50:03.426Z,41.08
2018-08-28T10:52:01.238Z,41.03
2018-08-28T10:53:36.386Z,40.49
2018-08-28T10:55:15.875Z,41.42
2018-08-28T10:56:52.791Z,40.72
2018-08-28T10:58:28.729Z,41.27
2018-08-28T11:00:21.203Z,39.56
2018-08-28T11:02:01.520Z,39.03
2018-08-28T11:05:22.105Z,40.12
2018-08-28T11:06:59.963Z,39.45
2018-08-28T11:08:35.010Z,38.41
2018-08-28T11:10:13.250Z,39.55
2018-08-28T11:11:48.302Z,37.93
2018-08-28T11:13:25.863Z,38.21
2018-08-28T11:15:03.565Z,37.47
2018-08-28T11:16:41.353Z,38.13
2018-08-28T11:18:18.847Z,39.15
2018-08-28T11:19:57.287Z,38.19
2018-08-28T11:21:34.527Z,39.08
2018-08-28T11:23:13.013Z,41.34
2018-08-28T11:24:49.329Z,39.01
2018-08-28T11:26:24.737Z,39.93
2018-08-28T11:28:01.598Z,39.22
2018-08-28T11:29:39.570Z,39.37
2018-08-28T11:31:16.812Z,38.93
2018-08-28T11:32:54.718Z,38.37
2018-08-28T11:34:31.377Z,38.13
2018-08-28T11:36:08.329Z,38.10
2018-08-28T11:37:45.401Z,39.64
2018-08-28T11:39:21.349Z,38.64
2018-08-28T11:40:57.716Z,39.14
2018-08-28T11:42:35.944Z,38.57
2018-08-28T11:44:12.611Z,37.55
2018-08-28T11:45:56.214Z,37.60
2018-08-28T11:47:32.597Z,38.52
2018-08-28T11:49:10.068Z,38.13
2018-08-28T11:50:46.106Z,37.44
2018-08-28T11:52:22.445Z,37.67
2018-08-28T11:53:59.954Z,37.34
2018-08-28T11:55:38.261Z,38.39
2018-08-28T11:57:15.590Z,36.83
2018-08-28T11:58:55.449Z,36.78
2018-08-28T12:00:32.248Z,36.65
2018-08-28T12:02:13.700Z,37.82
2018-08-28T12:03:50.361Z,37.19
2018-08-28T12:05:27.009Z,39.13
2018-08-28T12:07:05.925Z,39.24
2018-08-28T12:08:41.770Z,39.75
2018-08-28T12:10:18.597Z,39.94
2018-08-28T12:11:55.328Z,41.54
2018-08-28T12:13:34.909Z,38.16
2018-08-28T12:15:15.388Z,39.47
2018-08-28T12:16:51.275Z,38.11
2018-08-28T12:18:26.511Z,38.25
2018-08-28T12:20:04.826Z,39.70
2018-08-28T12:21:39.980Z,40.01
2018-08-28T12:23:17.481Z,40.04
2018-08-28T12:24:53.658Z,38.39
2018-08-28T12:26:33.042Z,38.45
2018-08-28T12:28:10.579Z,38.13
2018-08-28T12:29:50.417Z,38.25
2018-08-28T12:31:33.552Z,38.64
2018-08-28T12:33:10.684Z,38.73
2018-08-28T12:34:47.369Z,38.00
2018-08-28T12:36:29.100Z,38.51
2018-08-28T12:38:06.777Z,39.46
2018-08-28T12:39:46.620Z,39.51
2018-08-28T12:41:28.557Z,38.55
2018-08-28T12:43:05.909Z,38.81
2018-08-28T12:44:45.480Z,39.12
2018-08-28T12:46:26.619Z,38.77
2018-08-28T12:48:05.186Z,39.24
2018-08-28T12:49:45.628Z,38.37
2018-08-28T12:51:24.561Z,37.59
2018-08-28T12:53:08.623Z,39.14
2018-08-28T12:54:56.356Z,38.73
2018-08-28T12:56:34.742Z,39.78
2018-08-28T12:58:14.195Z,39.71
2018-08-28T12:59:50.649Z,39.45
2018-08-28T13:01:29.556Z,40.02
2018-08-28T13:03:09.527Z,39.06
2018-08-28T13:04:48.088Z,39.02
2018-08-28T13:06:25.928Z,38.08
2018-08-28T13:08:04.076Z,39.45
2018-08-28T13:09:43.335Z,39.25
2018-08-28T13:11:21.875Z,38.70
2018-08-28T13:13:02.495Z,39.30
2018-08-28T13:14:42.129Z,39.75
2018-08-28T13:16:23.480Z,38.54
2018-08-28T13:21:54.626Z,38.74
2018-08-28T13:23:33.856Z,37.97
2018-08-28T13:25:11.886Z,36.47
2018-08-28T13:26:51.112Z,37.58
2018-08-28T13:28:32.647Z,38.09
2018-08-28T13:30:24.465Z,37.73
2018-08-28T13:32:03.024Z,37.54
2018-08-28T13:33:43.594Z,37.28
2018-08-28T13:35:22.845Z,40.00
2018-08-28T13:37:08.730Z,38.48
2018-08-28T13:38:51.480Z,38.92
2018-08-28T13:40:35.812Z,39.18
2018-08-28T13:42:12.824Z,38.12
2018-08-28T13:43:49.168Z,39.08
2018-08-28T13:45:26.497Z,40.03
2018-08-28T13:47:05.972Z,37.63
2018-08-28T13:48:42.665Z,38.47
2018-08-28T13:50:21.512Z,37.76
2018-08-28T13:52:00.261Z,37.12
2018-08-28T13:53:42.970Z,38.06
2018-08-28T13:55:21.915Z,38.32
2018-08-28T13:57:05.724Z,37.44
2018-08-28T13:58:46.072Z,38.57
2018-08-28T14:00:21.312Z,37.81
2018-08-28T14:01:57.067Z,38.06
2018-08-28T14:03:33.425Z,37.73
2018-08-28T14:05:08.980Z,38.28
2018-08-28T14:06:45.645Z,38.91
2018-08-28T14:08:21.277Z,38.65
2018-08-28T14:09:58.561Z,38.12
2018-08-28T14:11:37.059Z,38.78
2018-08-28T14:13:13.318Z,37.79
2018-08-28T14:16:37.004Z,37.80
2018-08-28T14:18:13.548Z,38.42
2018-08-28T14:19:48.955Z,38.88
2018-08-28T14:21:24.072Z,38.83
2018-08-28T14:23:02.233Z,39.23
2018-08-28T14:24:38.303Z,38.71
2018-08-28T14:26:16.284Z,38.75
2018-08-28T14:27:59.206Z,39.72
2018-08-28T14:29:36.478Z,38.63
2018-08-28T14:31:12.415Z,39.07
2018-08-28T14:32:50.632Z,38.24
2018-08-28T14:34:29.356Z,39.83
2018-08-28T14:36:06.266Z,41.04
2018-08-28T14:37:43.312Z,39.39
2018-08-28T14:39:20.192Z,39.54
2018-08-28T14:41:00.128Z,39.54
2018-08-28T14:42:38.890Z,37.81
2018-08-28T14:44:17.524Z,38.46
2018-08-28T14:45:58.340Z,38.07
2018-08-28T14:47:38.263Z,38.27
2018-08-28T14:49:17.213Z,38.75
2018-08-28T14:50:54.092Z,38.22
2018-08-28T14:52:36.687Z,38.61
2018-08-28T14:54:14.143Z,36.33
2018-08-28T14:55:51.966Z,38.03
2018-08-28T14:57:33.455Z,37.23
2018-08-28T14:59:10.371Z,36.89
2018-08-28T15:00:50.320Z,37.03
2018-08-28T15:02:29.527Z,37.70
2018-08-28T15:04:06.519Z,37.45
2018-08-28T15:05:43.327Z,37.72
2018-08-28T15:07:21.269Z,38.24
2018-08-28T15:08:58.717Z,37.61
2018-08-28T15:10:37.857Z,37.52
2018-08-28T15:12:13.592Z,38.53
2018-08-28T15:13:51.466Z,38.12
2018-08-28T15:15:30.822Z,38.25
2018-08-28T15:17:07.899Z,38.42
2018-08-28T15:18:47.449Z,37.66
2018-08-28T15:20:30.584Z,38.54
2018-08-28T15:22:07.373Z,38.20
2018-08-28T15:23:48.486Z,38.80
2018-08-28T15:25:31.266Z,38.02
2018-08-28T15:27:12.307Z,37.16
2018-08-28T15:28:49.620Z,37.42
2018-08-28T15:30:27.340Z,37.16
2018-08-28T15:32:05.029Z,37.79
2018-08-28T15:33:41.498Z,37.54
2018-08-28T15:35:17.427Z,37.99
2018-08-28T15:36:52.953Z,39.24
2018-08-28T15:38:30.154Z,39.83
2018-08-28T15:40:30.884Z,39.50
2018-08-28T15:42:34.590Z,40.12
2018-08-28T15:44:35.243Z,41.83
2018-08-28T15:46:37.436Z,41.34
2018-08-28T15:48:18.194Z,40.74
2018-08-28T15:49:56.680Z,40.69
2018-08-28T15:51:53.878Z,41.91
2018-08-28T15:53:30.905Z,41.72
2018-08-28T15:55:07.692Z,42.23
2018-08-28T15:56:46.488Z,41.20
2018-08-28T15:58:40.455Z,42.91
2018-08-28T16:00:22.679Z,41.58
2018-08-28T16:02:00.170Z,42.64
2018-08-28T16:03:37.518Z,43.01
2018-08-28T16:05:17.232Z,42.70
2018-08-28T16:06:55.655Z,42.30
2018-08-28T16:08:32.655Z,43.19
2018-08-28T16:10:13.433Z,42.96
2018-08-28T16:11:50.229Z,43.06
2018-08-28T16:13:27.761Z,42.93
2018-08-28T16:15:16.748Z,43.52
2018-08-28T16:16:58.269Z,43.96
2018-08-28T16:18:40.829Z,43.86
2018-08-28T16:20:20.504Z,43.22
2018-08-28T16:22:05.527Z,44.04
2018-08-28T16:23:49.513Z,44.75
2018-08-28T16:25:28.700Z,43.71
2018-08-28T16:27:06.177Z,43.42
2018-08-28T16:28:43.488Z,43.57
2018-08-28T16:30:20.898Z,44.61
2018-08-28T16:31:59.409Z,43.01
2018-08-28T16:33:37.513Z,45.33
2018-08-28T16:35:14.967Z,44.99
2018-08-28T16:36:52.021Z,45.59
2018-08-28T16:38:28.187Z,45.99
2018-08-28T16:40:07.934Z,44.89
2018-08-28T16:41:52.135Z,45.96
2018-08-28T16:43:30.315Z,44.67
2018-08-28T16:45:10.741Z,44.88
2018-08-28T16:46:51.984Z,44.68
2018-08-28T16:48:34.409Z,46.18
2018-08-28T16:50:13.485Z,46.97
2018-08-28T16:51:52.223Z,46.48
2018-08-28T16:53:32.125Z,45.58
2018-08-28T16:55:09.237Z,46.49
2018-08-28T16:56:48.868Z,46.44
2018-08-28T16:58:29.169Z,46.42
2018-08-28T17:00:10.701Z,45.77
2018-08-28T17:01:50.807Z,46.95
2018-08-28T17:03:34.345Z,47.19
2018-08-28T17:05:11.714Z,48.08
2018-08-28T17:06:48.650Z,46.83
2018-08-28T17:08:28.633Z,46.83
2018-08-28T17:10:10.840Z,47.73
2018-08-28T17:11:49.639Z,47.17
2018-08-28T17:13:29.846Z,48.09
2018-08-28T17:15:21.705Z,47.85
2018-08-28T17:17:07.248Z,48.84
2018-08-28T17:18:45.526Z,48.27
2018-08-28T17:20:28.499Z,49.51
2018-08-28T17:22:08.319Z,49.82
2018-08-28T17:23:45.253Z,49.95
2018-08-28T17:25:26.762Z,49.95
2018-08-28T17:27:15.614Z,50.27
2018-08-28T17:28:55.513Z,49.89
2018-08-28T17:30:35.218Z,51.10
2018-08-28T17:32:21.893Z,50.96
2018-08-28T17:33:59.758Z,50.11
2018-08-28T17:35:46.088Z,50.89
2018-08-28T17:37:24.975Z,51.38
2018-08-28T17:39:02.083Z,50.92
2018-08-28T17:40:39.554Z,51.83
2018-08-28T17:42:21.275Z,51.81
2018-08-28T17:44:01.465Z,51.39
2018-08-28T17:45:41.712Z,51.43
2018-08-28T17:47:19.389Z,52.04
2018-08-28T17:49:02.367Z,51.90
2018-08-28T17:52:33.968Z,51.47
2018-08-28T17:54:14.538Z,52.81
2018-08-28T17:55:56.378Z,53.39
2018-08-28T17:57:40.170Z,54.60
2018-08-28T17:59:18.630Z,56.05
2018-08-28T18:01:05.378Z,55.75
2018-08-28T18:02:45.155Z,56.39
2018-08-28T18:04:25.157Z,57.08
2018-08-28T18:06:05.737Z,58.58
2018-08-28T18:07:43.529Z,58.63
2018-08-28T18:11:08.212Z,58.96
2018-08-28T18:12:46.509Z,59.78
2018-08-28T18:14:24.866Z,60.64
2018-08-28T18:16:08.720Z,61.22
2018-08-28T18:17:47.640Z,61.64
2018-08-28T18:19:33.930Z,61.38
2018-08-28T18:21:14.009Z,62.52
2018-08-28T18:22:57.241Z,62.32
2018-08-28T18:24:40.029Z,62.88
2018-08-28T18:26:22.511Z,63.39
2018-08-28T18:28:02.979Z,64.13
2018-08-28T18:29:44.935Z,64.80
2018-08-28T18:31:27.292Z,64.92
2018-08-28T18:33:04.566Z,65.67
2018-08-28T18:34:43.299Z,66.37
2018-08-28T18:36:27.428Z,66.42
2018-08-28T18:38:06.811Z,66.80
2018-08-28T18:39:44.911Z,66.92
2018-08-28T18:41:26.864Z,66.99
2018-08-28T18:43:07.899Z,67.16
2018-08-28T18:44:47.352Z,67.41
2018-08-28T18:46:28.486Z,68.03
2018-08-28T18:48:05.646Z,67.98
2018-08-28T18:49:50.318Z,67.71
2018-08-28T18:51:27.164Z,67.85
2018-08-28T18:53:03.883Z,67.68
2018-08-28T18:54:48.655Z,68.45
2018-08-28T18:56:26.804Z,69.25
2018-08-28T18:58:09.417Z,69.07
2018-08-28T18:59:51.831Z,68.93
2018-08-28T19:03:31.008Z,70.00
2018-08-28T19:05:09.741Z,70.51
2018-08-28T19:06:58.766Z,70.02
2018-08-28T19:08:36.826Z,70.15
2018-08-28T19:10:31.505Z,70.50
2018-08-28T19:12:10.600Z,70.09
2018-08-28T19:13:49.568Z,69.68
2018-08-28T19:15:30.482Z,68.94
2018-08-28T19:17:13.861Z,69.97
2018-08-28T19:19:07.466Z,69.98
2018-08-28T19:20:55.650Z,68.97
2018-08-28T19:22:42.808Z,69.35
2018-08-28T19:24:28.721Z,69.91
2018-08-28T19:26:11.273Z,69.38
2018-08-28T19:27:57.267Z,69.93
2018-08-28T19:29:43.522Z,69.36
2018-08-28T19:31:26.206Z,70.01
2018-08-28T19:33:10.682Z,69.52
2018-08-28T19:34:53.840Z,70.27
2018-08-28T19:36:31.301Z,69.90
2018-08-28T19:38:11.831Z,69.92
2018-08-28T19:39:56.587Z,69.64
2018-08-28T19:41:35.579Z,70.00
2018-08-28T19:43:19.142Z,70.04
2018-08-28T19:44:57.525Z,70.35
2018-08-28T19:46:39.500Z,69.54
2018-08-28T19:48:21.104Z,69.65
2018-08-28T19:50:09.473Z,69.29
2018-08-28T19:51:46.615Z,70.51
2018-08-28T19:53:28.988Z,69.77
2018-08-28T19:55:04.361Z,70.19
2018-08-28T19:56:42.699Z,70.18
2018-08-28T19:58:21.759Z,70.82
2018-08-28T20:00:00.093Z,70.63
2018-08-28T20:01:41.016Z,70.13
2018-08-28T20:03:20.625Z,70.21
2018-08-28T20:05:02.175Z,70.68
2018-08-28T20:06:41.193Z,70.74
2018-08-28T20:08:21.706Z,70.94
2018-08-28T20:10:01.270Z,70.94
2018-08-28T20:11:42.619Z,69.87
2018-08-28T20:13:22.509Z,69.90
2018-08-28T20:15:06.984Z,69.94
2018-08-28T20:16:50.771Z,70.40
2018-08-28T20:18:29.138Z,69.95
2018-08-28T20:20:09.440Z,70.26
2018-08-28T20:21:48.403Z,70.41
2018-08-28T20:23:26.587Z,70.54
2018-08-28T20:25:06.531Z,69.87
2018-08-28T20:26:44.293Z,70.61
2018-08-28T20:28:25.041Z,70.63
2018-08-28T20:30:05.023Z,70.45
2018-08-28T20:31:45.212Z,70.53
2018-08-28T20:33:24.672Z,70.44
2018-08-28T20:35:05.131Z,70.67
2018-08-28T20:36:48.301Z,70.75
2018-08-28T20:38:32.367Z,71.42
2018-08-28T20:40:09.985Z,71.86
2018-08-28T20:41:48.601Z,71.12
2018-08-28T20:44:37.367Z,72.33
2018-08-28T20:46:16.396Z,72.06
2018-08-28T20:47:53.824Z,72.03
2018-08-28T20:49:47.332Z,72.00
2018-08-28T20:51:24.387Z,71.48
2018-08-28T20:53:02.725Z,72.28
2018-08-28T20:54:38.954Z,72.38
2018-08-28T20:56:18.612Z,72.64
2018-08-28T20:57:56.683Z,72.80
2018-08-28T20:59:34.085Z,73.06
2018-08-28T21:01:10.890Z,72.08
2018-08-28T21:02:47.000Z,72.39
2018-08-28T21:04:24.825Z,72.60
2018-08-28T21:06:01.945Z,73.19
2018-08-28T21:07:38.351Z,72.85
2018-08-28T21:09:16.958Z,73.54
2018-08-28T21:10:56.248Z,73.48
2018-08-28T21:12:36.906Z,73.27
2018-08-28T21:14:14.794Z,73.14
2018-08-28T21:15:54.490Z,73.32
2018-08-28T21:17:33.421Z,73.56
2018-08-28T21:19:12.634Z,73.36
2018-08-28T21:20:50.136Z,74.10
2018-08-28T21:22:28.764Z,73.28